Maplewood, Ohio
Current Conditions -  °F | °C
As of 1:10 AM on Sunday 21 Dec 2014 (Local Time) from KEDJ Reporting Station
Overcast Overcast  
Wind Chill: 21°   Ceiling: 2600
Heat Index: 27°   Visibility: 6mi
Dew Point: 25°   Wind: 5mph
Humidity: 93%   Direction: 210°SSW
Pressure: 30.27"   Gusts: NA
Location:  40.38°N, 84.03°W
Report Text: KEDJ 210610Z AUTO 21004KT 6SM OVC026 M03/M04 A3027 RMK AO1
Loading
Personal Weather Stations






























Interactive Weather Map New forecast layout! Learn more

10-Day Weather Forecast

Advertisements
Track Severe Weather on mobile